FlightSource - Aviation Photo Database

World Wide Airport Lookup


Search by ICAO
Or
Search by City

FlightSource.ca - Aviation Photo Database - Tahlequah Municipal Airport Information
Airport Identification
Name: Tahlequah Municipal Airport
ICAO: KTQH
IATA:
Airport Location
City: Tahlequah
Region: OK
Country: United States
Continent: North America
Latitude: 35.9289
Longitude: -95.0045
Airport Information
Type: Small Airport
Elevation: 873 Feet ASL
Flight Status: KTQH
More Info: KTQH
Airport Weather    
Metar: KTQH 221535Z AUTO 23009G21KT 10SM CLR 05/M01 A2976 RMK AO2
TAF:


Advertisement